Time;durP1;ratioP1;P1;durP2;ratioP2;P2;SDS_P1;SDS_P2;PMS_P1;PMS_P2;Temp;Humidity;BMP_temperature;BMP_pressure;BME280_temperature;BME280_humidity;BME280_pressure;Samples;Min_cycle;Max_cycle;Signal;HPM_P1;HPM_P2
2022/12/16 00:02:03;;;;;;;8.38;1.67;;;19.20;99.90;;;;;;5051708;28;20422;-81
2022/12/16 00:04:29;;;;;;;10.15;1.75;;;19.10;99.90;;;;;;5051241;28;20021;-81
2022/12/16 00:06:57;;;;;;;8.70;1.80;;;19.20;99.90;;;;;;5049077;28;20056;-80
2022/12/16 00:09:23;;;;;;;10.55;1.30;;;19.10;99.90;;;;;;5041737;28;20032;-79
2022/12/16 00:11:49;;;;;;;6.63;1.30;;;19.10;99.90;;;;;;5042111;28;20030;-78
2022/12/16 00:14:18;;;;;;;7.78;1.20;;;19.20;99.90;;;;;;5040446;28;20021;-76
2022/12/16 00:16:44;;;;;;;13.40;1.55;;;19.30;99.90;;;;;;5042763;28;20039;-81
2022/12/16 00:19:10;;;;;;;10.85;1.80;;;19.20;99.90;;;;;;5039587;28;20052;-81
2022/12/16 00:21:38;;;;;;;8.15;1.60;;;19.30;99.90;;;;;;5042361;28;20366;-79
2022/12/16 00:24:04;;;;;;;12.23;1.40;;;19.30;99.90;;;;;;5039611;28;20600;-81
2022/12/16 00:26:30;;;;;;;9.38;1.63;;;19.30;99.90;;;;;;5042098;28;20085;-82
2022/12/16 00:28:57;;;;;;;9.07;1.40;;;19.40;99.90;;;;;;5040477;28;20033;-81
2022/12/16 00:31:23;;;;;;;11.00;1.42;;;19.40;99.90;;;;;;5036127;28;20120;-83
2022/12/16 00:33:51;;;;;;;7.65;1.45;;;19.50;99.90;;;;;;5032788;28;20017;-81
2022/12/16 00:36:17;;;;;;;10.75;1.52;;;19.50;99.90;;;;;;5040483;28;20132;-81
2022/12/16 00:38:44;;;;;;;10.65;1.40;;;19.50;99.90;;;;;;5052278;28;20024;-81
2022/12/16 00:41:11;;;;;;;10.30;1.45;;;19.50;99.90;;;;;;5051778;28;20484;-81
2022/12/16 00:43:37;;;;;;;8.18;1.20;;;19.50;99.90;;;;;;5051994;28;20021;-81
2022/12/16 00:46:04;;;;;;;12.48;1.80;;;19.50;99.90;;;;;;5052167;28;20025;-81
2022/12/16 00:48:30;;;;;;;10.35;1.58;;;19.40;99.90;;;;;;5052001;28;20028;-81
2022/12/16 00:50:56;;;;;;;10.30;1.75;;;19.50;99.90;;;;;;5051611;28;20357;-81
2022/12/16 00:53:24;;;;;;;7.05;1.23;;;19.40;99.90;;;;;;5051859;28;20084;-81
2022/12/16 00:56:01;;;;;;;12.30;1.75;;;19.60;99.90;;;;;;5051810;28;20591;-81
2022/12/16 00:58:27;;;;;;;9.05;1.30;;;19.60;99.90;;;;;;5050383;28;20025;-81
2022/12/16 01:00:53;;;;;;;15.80;2.13;;;19.60;99.90;;;;;;5051755;28;20028;-81
2022/12/16 01:03:19;;;;;;;12.30;1.98;;;19.60;99.90;;;;;;5051925;28;20025;-81
2022/12/16 01:05:45;;;;;;;6.00;1.40;;;19.50;99.90;;;;;;5052421;28;20480;-81
2022/12/16 01:08:11;;;;;;;9.48;1.95;;;19.50;99.90;;;;;;5051708;28;20036;-81
2022/12/16 01:10:37;;;;;;;13.70;1.75;;;19.40;99.90;;;;;;5051595;28;20021;-80
2022/12/16 01:13:03;;;;;;;12.38;1.77;;;19.40;99.90;;;;;;5051008;28;20032;-82
2022/12/16 01:15:29;;;;;;;8.63;1.30;;;19.40;99.90;;;;;;5050027;28;20028;-80
2022/12/16 01:17:55;;;;;;;14.13;1.90;;;19.40;99.90;;;;;;5051959;28;20056;-79
2022/12/16 01:20:21;;;;;;;10.38;1.85;;;19.40;99.90;;;;;;5051964;28;20045;-80
2022/12/16 01:23:00;;;;;;;14.43;2.17;;;19.40;99.90;;;;;;5050640;28;20485;-81
2022/12/16 01:25:26;;;;;;;12.07;2.00;;;19.30;99.90;;;;;;5051676;28;20032;-80
2022/12/16 01:27:52;;;;;;;13.32;1.98;;;19.40;99.90;;;;;;5051467;28;20025;-80
2022/12/16 01:30:18;;;;;;;11.80;1.70;;;19.40;99.90;;;;;;5051779;28;20032;-80
2022/12/16 01:32:44;;;;;;;17.55;2.10;;;19.40;99.90;;;;;;5051319;28;20029;-80
2022/12/16 01:35:15;;;;;;;10.70;2.25;;;19.40;99.90;;;;;;5051280;28;20032;-81
2022/12/16 01:37:41;;;;;;;13.57;1.75;;;19.40;99.90;;;;;;5049833;28;20094;-80
2022/12/16 01:40:17;;;;;;;9.82;1.30;;;19.40;99.90;;;;;;5051646;28;20074;-80
2022/12/16 01:42:43;;;;;;;14.13;1.67;;;19.40;99.90;;;;;;5051757;28;20532;-81
2022/12/16 01:45:31;;;;;;;14.98;1.85;;;19.40;99.90;;;;;;5051375;28;20035;-81
2022/12/16 01:48:01;;;;;;;13.65;1.75;;;19.40;99.90;;;;;;5051261;28;20481;-80
2022/12/16 01:50:29;;;;;;;14.48;2.10;;;19.50;99.90;;;;;;5050778;28;20414;-80
2022/12/16 01:52:59;;;;;;;8.45;1.73;;;19.50;99.90;;;;;;5050921;28;20025;-80
2022/12/16 01:55:30;;;;;;;16.55;2.20;;;19.40;99.90;;;;;;5051267;28;20029;-80
2022/12/16 01:58:04;;;;;;;14.70;2.00;;;19.50;99.90;;;;;;5051365;28;20029;-80
2022/12/16 02:00:31;;;;;;;15.52;2.33;;;19.50;99.90;;;;;;5051036;28;20067;-81
2022/12/16 02:02:58;;;;;;;11.45;1.85;;;19.40;99.90;;;;;;5050985;28;20025;-81
2022/12/16 02:05:25;;;;;;;12.57;1.90;;;19.40;99.90;;;;;;5051280;28;20036;-80
2022/12/16 02:08:00;;;;;;;16.73;2.33;;;19.30;99.90;;;;;;5050863;28;20025;-81
2022/12/16 02:10:51;;;;;;;15.73;2.00;;;19.40;99.90;;;;;;5050936;28;20354;-80
2022/12/16 02:13:53;;;;;;;19.90;2.13;;;19.30;99.90;;;;;;5051133;28;20162;-81
2022/12/16 02:16:41;;;;;;;17.10;2.15;;;19.30;99.90;;;;;;5049351;28;20469;-81
2022/12/16 02:19:40;;;;;;;14.45;2.15;;;19.30;99.90;;;;;;5049617;28;20060;-80
2022/12/16 02:22:44;;;;;;;14.48;2.20;;;19.20;99.90;;;;;;5049514;28;20029;-80
2022/12/16 02:25:19;;;;;;;10.15;2.03;;;19.30;99.90;;;;;;5051368;28;20025;-80
2022/12/16 02:28:08;;;;;;;17.27;2.40;;;19.30;99.90;;;;;;5055069;28;20037;-80
2022/12/16 02:31:05;;;;;;;14.73;2.10;;;19.20;99.90;;;;;;5054908;28;20376;-81
2022/12/16 02:33:47;;;;;;;12.70;2.08;;;19.20;99.90;;;;;;5054383;28;20029;-81
2022/12/16 02:36:13;;;;;;;19.05;2.58;;;19.10;99.90;;;;;;5054745;28;20094;-80
2022/12/16 02:38:48;;;;;;;13.27;2.25;;;19.10;99.90;;;;;;5054682;28;20017;-81
2022/12/16 02:42:03;;;;;;;14.25;2.28;;;19.00;99.90;;;;;;5054522;28;20043;-81
2022/12/16 02:44:38;;;;;;;14.43;2.22;;;19.00;99.90;;;;;;5035542;28;20481;-81
2022/12/16 02:47:04;;;;;;;19.75;2.25;;;18.90;99.90;;;;;;5052773;28;20025;-80
2022/12/16 02:49:30;;;;;;;14.80;2.60;;;18.90;99.90;;;;;;5053038;28;20029;-81
2022/12/16 02:51:58;;;;;;;23.02;2.75;;;18.90;99.90;;;;;;5054052;28;20044;-81
2022/12/16 02:54:26;;;;;;;17.80;2.75;;;18.90;99.90;;;;;;5053869;28;20033;-80
2022/12/16 02:57:12;;;;;;;14.27;2.05;;;18.90;99.90;;;;;;5054282;28;20068;-81
2022/12/16 02:59:50;;;;;;;16.92;2.38;;;18.90;99.90;;;;;;5053993;28;20025;-81
2022/12/16 03:02:40;;;;;;;18.15;2.85;;;19.00;99.90;;;;;;5054387;28;20416;-80
2022/12/16 03:05:16;;;;;;;19.42;2.92;;;19.00;99.90;;;;;;5054119;28;20357;-81
2022/12/16 03:07:43;;;;;;;17.35;2.20;;;19.00;99.90;;;;;;5054202;28;20035;-81
2022/12/16 03:10:14;;;;;;;18.25;2.92;;;18.90;99.90;;;;;;5054087;28;20080;-80
2022/12/16 03:12:43;;;;;;;21.23;2.78;;;18.80;99.90;;;;;;5054234;28;20028;-80
2022/12/16 03:15:12;;;;;;;22.80;2.65;;;18.70;99.90;;;;;;5053560;28;20025;-81
2022/12/16 03:17:39;;;;;;;19.17;2.30;;;18.70;99.90;;;;;;5052133;28;20049;-80
2022/12/16 03:20:35;;;;;;;18.52;2.30;;;18.60;99.90;;;;;;5053943;28;20028;-80
2022/12/16 03:23:16;;;;;;;15.25;2.83;;;18.60;99.90;;;;;;5031235;28;20266;-80
2022/12/16 03:25:46;;;;;;;15.07;2.67;;;18.50;99.90;;;;;;5015004;28;20191;-80
2022/12/16 03:28:31;;;;;;;15.68;2.35;;;18.50;99.90;;;;;;5031536;28;20037;-80
2022/12/16 03:31:26;;;;;;;21.67;3.08;;;18.50;99.90;;;;;;5031122;28;20048;-81
2022/12/16 03:34:02;;;;;;;14.05;3.03;;;18.50;99.90;;;;;;5024551;28;20041;-81
2022/12/16 03:36:32;;;;;;;;;;;18.40;99.90;;;;;;5031447;28;20128;-81
2022/12/16 03:39:00;;;;;;;15.02;2.58;;;18.40;99.90;;;;;;5031071;28;19912;-80
2022/12/16 03:41:29;;;;;;;19.33;2.65;;;18.30;99.90;;;;;;5030705;28;20087;-80
2022/12/16 03:44:01;;;;;;;20.25;2.35;;;18.40;99.90;;;;;;5031110;28;20044;-80
2022/12/16 03:46:27;;;;;;;27.92;3.55;;;18.30;99.90;;;;;;5031770;28;20033;-81
2022/12/16 03:48:54;;;;;;;19.27;2.30;;;18.30;99.90;;;;;;5031408;28;20458;-81
2022/12/16 03:51:20;;;;;;;20.25;2.58;;;18.20;99.90;;;;;;5030762;28;20061;-80
2022/12/16 03:53:46;;;;;;;15.02;2.40;;;18.20;99.90;;;;;;5029216;28;20135;-80
2022/12/16 03:56:13;;;;;;;15.43;2.30;;;18.20;99.90;;;;;;5051442;28;20052;-81
2022/12/16 03:58:40;;;;;;;21.17;3.20;;;18.10;99.90;;;;;;5051258;28;20040;-80
2022/12/16 04:01:11;;;;;;;22.58;2.40;;;18.10;99.90;;;;;;5052872;28;20131;-81
2022/12/16 04:03:41;;;;;;;15.93;2.17;;;18.10;99.90;;;;;;5052091;28;20028;-81
2022/12/16 04:06:07;;;;;;;19.38;2.95;;;18.00;99.90;;;;;;5053581;28;20025;-81
2022/12/16 04:08:33;;;;;;;;;;;18.00;99.90;;;;;;5054027;28;20028;-81
2022/12/16 04:25:15;;;;;;;24.65;3.17;;;17.90;99.90;;;;;;5054211;28;20051;-80
2022/12/16 04:27:45;;;;;;;19.52;2.50;;;18.00;99.90;;;;;;5053910;28;20025;-81
2022/12/16 04:30:20;;;;;;;21.92;2.75;;;17.90;99.90;;;;;;5054042;28;20025;-83
